KEND/END METAR and TAF weather

Enter ICAO airport designator
Station Type Date Time Source
KEND METAR 2020/09/26 23:56 UTC NOAA

KEND 262356Z AUTO 17019G28KT 10SM CLR 29/18 A2969 RMK AO2 PK WND 17029/36 SLP044 T02910176 10331 20291 57007 $


Station Type Date Time Source
KEND Decoded METAR 2020/09/26 23:56 UTC NOAA

Vance Air Force Base / Enid, OK, United States (KEND) 36-20N 097-55W
Sep 26, 2020 - 07:56 PM EDT / 2020.09.26 2356 UTC
Wind: from the S (170 degrees) at 22 MPH (19 KT) gusting to 32 MPH (28 KT):0
Visibility: 10 mile(s):0
Sky conditions: clear
Temperature: 84.4 F (29.1 C)
Dew Point: 63.7 F (17.6 C)
Relative Humidity: 49%
Pressure (altimeter): 29.69 in. Hg (1005 hPa)
Pressure tendency: 0.02 inches (0.7 hPa) lower than three hours ago
ob: KEND 262356Z AUTO 17019G28KT 10SM CLR 29/18 A2969 RMK AO2 PK WND 17029/36 SLP044 T02910176 10331 20291 57007
cycle: 0

Station Type Date Time Source
KEND TAF 2020/09/25 21:51 UTC NOAA

TAF TAF
AMD KEND 252141Z 2521/2624 18014G22KT 9999 SKC QNH2981INS
BECMG 2523/2524 17013KT 9999 SKC QNH2980INS
BECMG 2614/2615 19013G20KT 9999 SKC QNH2977INS
TEMPO 2618/2623 18020G30KT TX33/2521Z TN17/2612Z LAST NO
AMDS AFT 2521 NEXT 2716

Example: see airport list